Time;durP1;ratioP1;P1;durP2;ratioP2;P2;SDS_P1;SDS_P2;PMS_P1;PMS_P2;Temp;Humidity;BMP_temperature;BMP_pressure;BME280_temperature;BME280_humidity;BME280_pressure;Samples;Min_cycle;Max_cycle;Signal;HPM_P1;HPM_P2
2023/12/08 00:00:56;;;;;;;127.93;18.20;;;1.50;99.90;;;-0.23;100.00;101431.13;4804876;29;20048;-86
2023/12/08 00:03:22;;;;;;;133.45;18.98;;;1.50;99.90;;;-0.21;100.00;101429.41;4824465;29;20036;-87
2023/12/08 00:05:48;;;;;;;114.80;19.58;;;;;;;-0.27;100.00;101436.25;4826467;29;20041;-86
2023/12/08 00:08:40;;;;;;;146.63;17.92;;;1.50;99.90;;;-0.28;100.00;101440.59;4804254;28;20601;-87
2023/12/08 00:11:11;;;;;;;176.50;20.48;;;;;;;-0.30;100.00;101431.94;4756556;29;20046;-87
2023/12/08 00:14:12;;;;;;;;;;;;;;;;;;;;;
2023/12/08 00:16:59;;;;;;;200.00;23.20;;;;;;;-0.21;100.00;101434.59;4743365;29;20246;-86
2023/12/08 00:19:58;;;;;;;248.32;24.40;;;1.50;99.90;;;-0.13;100.00;101428.59;4761022;29;20079;-87
2023/12/08 00:22:33;;;;;;;156.40;17.25;;;1.50;99.90;;;-0.21;100.00;101428.56;4720996;29;20042;-86
2023/12/08 00:24:59;;;;;;;181.32;17.02;;;1.50;99.90;;;-0.25;100.00;101434.56;4712921;29;20669;-87
2023/12/08 00:27:27;;;;;;;272.10;18.35;;;;;;;-0.29;100.00;101425.88;4734005;29;20039;-86
2023/12/08 00:30:00;;;;;;;250.90;29.35;;;1.40;99.90;;;-0.29;100.00;101425.88;4809068;29;20479;-87
2023/12/08 00:32:29;;;;;;;191.77;19.42;;;;;;;-0.27;100.00;101423.31;4851159;29;20040;-86
2023/12/08 00:35:18;;;;;;;283.17;21.25;;;1.40;99.90;;;-0.29;100.00;101419.84;4826001;29;20079;-86
2023/12/08 00:37:47;;;;;;;216.43;17.55;;;1.40;99.90;;;-0.32;100.00;101414.66;4822790;29;20057;-86
2023/12/08 00:40:13;;;;;;;349.85;22.85;;;1.40;99.90;;;-0.28;100.00;101413.81;4779309;29;20048;-86
2023/12/08 00:42:39;;;;;;;392.30;24.10;;;;;;;-0.26;100.00;101420.75;4826426;29;20038;-86
2023/12/08 00:45:25;;;;;;;366.45;23.60;;;1.40;99.90;;;-0.23;100.00;101420.78;4830330;29;20205;-86
2023/12/08 00:47:59;;;;;;;357.48;22.50;;;;;;;-0.22;100.00;101409.59;4837443;28;20188;-86
2023/12/08 00:50:38;;;;;;;327.73;23.75;;;;;;;-0.21;100.00;101411.31;4897679;28;20034;-85
2023/12/08 00:53:12;;;;;;;305.92;26.35;;;1.50;99.90;;;-0.18;100.00;101413.03;4954363;28;20154;-86
2023/12/08 00:55:38;;;;;;;429.60;24.95;;;;;;;-0.17;100.00;101419.97;4880112;28;20517;-86
2023/12/08 00:58:43;;;;;;;;;;;;;;;;;;;;;
2023/12/08 01:01:22;;;;;;;;;;;;;;;;;;;;;
2023/12/08 01:03:58;;;;;;;304.73;20.40;;;1.50;99.90;;;-0.30;100.00;101413.81;4934198;28;20657;-87
2023/12/08 01:06:33;;;;;;;351.10;23.48;;;;;;;-0.26;100.00;101412.09;4900259;28;20041;-87
2023/12/08 01:08:59;;;;;;;325.35;23.98;;;;;;;-0.21;100.00;101420.78;4909909;28;20043;-87
2023/12/08 01:11:49;;;;;;;298.98;24.42;;;;;;;-0.19;100.00;101413.03;4883613;28;20497;-87
2023/12/08 01:14:21;;;;;;;271.90;23.63;;;;;;;-0.17;100.00;101422.56;4900025;28;20122;-88
2023/12/08 01:17:01;;;;;;;315.02;24.40;;;;;;;-0.15;100.00;101419.97;4916418;28;20054;-86
2023/12/08 01:19:27;;;;;;;345.10;22.80;;;;;;;-0.19;100.00;101413.03;4900039;28;20059;-86
2023/12/08 01:22:27;;;;;;;259.30;22.33;;;1.50;99.90;;;-0.25;100.00;101406.94;4959565;28;20029;-86
2023/12/08 01:24:56;;;;;;;266.02;20.80;;;;;;;-0.25;100.00;101409.53;4924148;28;20039;-87
2023/12/08 01:27:22;;;;;;;116.28;10.68;;;1.40;99.90;;;-0.36;100.00;101394.78;4922975;28;20451;-86
2023/12/08 01:29:50;;;;;;;263.70;19.92;;;1.40;99.90;;;-0.47;100.00;101402.44;4892408;28;20040;-86
2023/12/08 01:32:39;;;;;;;316.83;23.92;;;;;;;-0.36;100.00;101390.47;4899212;28;20124;-87
2023/12/08 01:35:08;;;;;;;320.73;20.77;;;;;;;-0.36;100.00;101389.59;4868340;28;20123;-86
2023/12/08 01:38:03;;;;;;;246.43;18.80;;;1.30;99.90;;;-0.36;100.00;101389.59;4851116;28;20480;-86
2023/12/08 01:40:58;;;;;;;263.02;18.85;;;1.20;99.90;;;-0.42;100.00;101377.47;4862158;28;20047;-86
2023/12/08 01:43:26;;;;;;;220.00;16.95;;;;;;;-0.42;100.00;101375.75;4840514;28;20048;-86
2023/12/08 01:46:00;;;;;;;307.75;17.85;;;1.30;99.90;;;-0.48;100.00;101372.22;4787847;29;20039;-86
2023/12/08 01:48:29;;;;;;;240.35;17.42;;;1.30;99.90;;;-0.47;100.00;101369.66;4860995;29;20067;-87
2023/12/08 01:51:03;;;;;;;228.70;17.17;;;;;;;-0.52;100.00;101375.63;4866155;29;20033;-87
2023/12/08 01:53:30;;;;;;;291.88;19.92;;;1.20;99.90;;;-0.47;100.00;101377.44;4834702;29;20052;-86
2023/12/08 01:55:59;;;;;;;309.83;19.63;;;1.20;99.90;;;-0.50;100.00;101358.41;4841314;29;20046;-87
2023/12/08 01:58:37;;;;;;;335.15;26.48;;;;;;;-0.44;100.00;101361.06;4828569;29;20543;-86
2023/12/08 02:01:15;;;;;;;250.38;20.73;;;;;;;-0.39;100.00;101372.31;4797492;29;20041;-85
2023/12/08 02:03:42;;;;;;;229.95;18.63;;;1.30;99.90;;;-0.44;100.00;101367.09;4795888;29;20063;-85
2023/12/08 02:06:17;;;;;;;304.30;21.15;;;;;;;-0.44;100.00;101361.91;4796772;29;20125;-85
2023/12/08 02:09:28;;;;;;;268.52;19.77;;;;;;;-0.46;100.00;101367.94;4827719;29;20115;-86
2023/12/08 02:12:09;;;;;;;241.80;19.20;;;1.30;99.90;;;-0.43;100.00;101373.16;4830698;29;20069;-86
2023/12/08 02:14:37;;;;;;;278.33;19.20;;;;;;;-0.46;100.00;101352.41;4810301;29;20431;-86
2023/12/08 02:17:16;;;;;;;278.63;17.65;;;1.20;99.90;;;-0.51;100.00;101344.63;4821810;29;20136;-86
2023/12/08 02:19:43;;;;;;;207.43;16.90;;;1.20;99.90;;;-0.49;100.00;101350.69;4774810;29;20060;-85
2023/12/08 02:22:49;;;;;;;138.23;13.50;;;1.20;99.90;;;-0.58;100.00;101355.78;4835456;28;20090;-85
2023/12/08 02:25:17;;;;;;;39.28;4.80;;;1.10;99.90;;;-0.61;100.00;101353.16;4838418;29;20598;-86
2023/12/08 02:27:51;;;;;;;165.50;12.82;;;;;;;-0.64;100.00;101348.81;4824869;29;20063;-85
2023/12/08 02:30:17;;;;;;;172.95;15.35;;;;;;;-0.66;100.00;101355.69;4803176;29;20097;-85
2023/12/08 02:33:09;;;;;;;251.27;22.92;;;1.10;99.90;;;-0.56;100.00;101356.66;4810533;29;20742;-85
2023/12/08 02:35:42;;;;;;;289.50;19.73;;;1.10;99.90;;;-0.55;100.00;101348.03;4767976;29;20049;-85
2023/12/08 02:38:20;;;;;;;256.60;20.50;;;1.20;99.90;;;-0.48;100.00;101343.78;4768123;29;20073;-85
2023/12/08 02:40:58;;;;;;;298.75;22.67;;;1.20;99.90;;;-0.41;100.00;101345.59;4771645;29;20034;-84
2023/12/08 02:43:27;;;;;;;272.35;19.02;;;1.30;99.90;;;-0.40;100.00;101336.94;4776060;29;20046;-85
2023/12/08 02:46:04;;;;;;;263.08;19.55;;;1.30;99.90;;;-0.38;100.00;101336.97;4796481;29;20069;-84
2023/12/08 02:48:30;;;;;;;202.27;14.80;;;1.20;99.90;;;-0.50;100.00;101341.16;4775610;29;20069;-86
2023/12/08 02:51:22;;;;;;;258.08;21.25;;;1.30;99.90;;;-0.47;100.00;101338.63;4780736;29;20157;-86
2023/12/08 02:53:52;;;;;;;177.38;18.75;;;;;;;-0.46;100.00;101331.72;4721899;29;20040;-86
2023/12/08 02:56:30;;;;;;;357.63;24.85;;;1.30;99.90;;;-0.44;100.00;101323.09;4712279;29;20055;-87
2023/12/08 02:59:40;;;;;;;226.80;17.50;;;;;;;-0.39;100.00;101328.31;4737249;29;20045;-88
2023/12/08 03:02:21;;;;;;;245.38;23.77;;;1.30;99.90;;;-0.48;100.00;101323.06;4715190;29;20047;-87
2023/12/08 03:04:58;;;;;;;174.93;19.60;;;;;;;-0.49;100.00;101316.19;4728454;29;20046;-85
2023/12/08 03:07:24;;;;;;;167.85;17.25;;;2.00;99.90;;;-0.54;100.00;101318.75;4726560;29;20078;-85
2023/12/08 03:09:50;;;;;;;289.85;25.40;;;1.20;99.90;;;-0.49;100.00;101319.63;4787012;29;20041;-86
2023/12/08 03:12:39;;;;;;;217.93;20.17;;;1.20;99.90;;;-0.45;100.00;101318.81;4789981;29;20401;-86
2023/12/08 03:15:25;;;;;;;293.65;25.15;;;1.30;99.90;;;-0.39;100.00;101322.28;4753872;29;20073;-84
2023/12/08 03:17:59;;;;;;;346.90;25.90;;;1.30;99.90;;;-0.35;100.00;101330.06;4763486;29;20046;-85
2023/12/08 03:20:28;;;;;;;312.10;24.55;;;1.30;99.90;;;-0.38;100.00;101324.03;4729291;29;21279;-85
2023/12/08 03:23:11;;;;;;;313.50;25.00;;;;;;;-0.35;100.00;101322.31;4773152;29;20049;-86
2023/12/08 03:25:46;;;;;;;196.05;23.25;;;1.30;99.90;;;-0.37;100.00;101315.41;4845272;28;20127;-86
2023/12/08 03:28:12;;;;;;;138.18;19.67;;;1.30;99.90;;;-0.47;100.00;101311.88;4824234;28;20047;-85
2023/12/08 03:34:19;;;;;;;;;;;1.20;99.90;;;-0.56;100.00;101299.75;4717031;29;20048;-86
2023/12/08 03:36:45;;;;;;;92.78;18.65;;;1.20;99.90;;;-0.52;100.00;101301.50;4735799;29;19922;-86
2023/12/08 03:39:10;;;;;;;189.50;27.52;;;1.20;99.90;;;-0.45;100.00;101295.53;4769277;29;20512;-85
2023/12/08 03:41:51;;;;;;;94.90;19.85;;;1.30;99.90;;;-0.46;100.00;101285.16;4788339;29;20531;-85
2023/12/08 03:44:46;;;;;;;110.05;22.08;;;1.20;99.90;;;-0.52;100.00;101279.91;4765774;29;20048;-85
2023/12/08 03:47:20;;;;;;;102.60;21.83;;;;;;;-0.57;100.00;101282.47;4758428;29;20041;-84
2023/12/08 03:49:48;;;;;;;69.28;14.48;;;;;;;-0.53;100.00;101284.25;4779670;29;20037;-86
2023/12/08 03:52:14;;;;;;;119.25;22.23;;;1.20;99.90;;;-0.50;100.00;101283.38;4737359;29;20043;-85
2023/12/08 03:55:07;;;;;;;138.18;24.88;;;1.20;99.90;;;-0.41;100.00;101283.47;4757752;29;20409;-86
2023/12/08 03:57:34;;;;;;;133.02;23.30;;;;;;;-0.40;100.00;101276.59;4771091;29;20046;-86
2023/12/08 04:00:12;;;;;;;112.85;22.38;;;1.30;99.90;;;-0.41;100.00;101267.97;4721435;29;20049;-88
2023/12/08 04:02:38;;;;;;;110.03;22.80;;;1.30;99.90;;;-0.40;100.00;101276.59;4751216;29;20478;-86
2023/12/08 04:05:33;;;;;;;111.30;25.45;;;1.30;99.90;;;-0.43;100.00;101286.06;4781272;29;20133;-85
2023/12/08 04:08:04;;;;;;;98.57;22.42;;;;;;;-0.44;100.00;101283.44;4807265;28;20089;-86
2023/12/08 04:10:48;;;;;;;129.77;25.75;;;1.30;99.90;;;-0.34;100.00;101263.69;4824935;29;20450;-86
2023/12/08 04:13:15;;;;;;;107.07;23.48;;;1.40;99.90;;;-0.29;100.00;101257.66;4850738;28;20036;-89
2023/12/08 04:15:40;;;;;;;129.00;25.95;;;1.40;99.90;;;-0.24;100.00;101256.00;4864683;28;20039;-86
2023/12/08 04:18:55;;;;;;;142.27;26.63;;;1.40;99.90;;;-0.23;100.00;101256.84;4867879;28;20514;-87
2023/12/08 04:21:30;;;;;;;124.50;22.85;;;;;;;-0.26;100.00;101256.81;4850811;28;20107;-86
2023/12/08 04:23:58;;;;;;;93.25;19.45;;;1.40;99.90;;;-0.33;100.00;101245.56;4843489;28;21660;-86
2023/12/08 04:26:31;;;;;;;42.30;10.52;;;;;;;-0.39;100.00;101240.34;4859963;29;20036;-86
2023/12/08 04:28:59;;;;;;;79.25;15.00;;;1.40;99.90;;;-0.38;100.00;101247.25;4836692;28;20046;-87
2023/12/08 04:31:25;;;;;;;106.35;19.63;;;1.30;99.90;;;-0.36;100.00;101250.72;4831832;29;20072;-87
2023/12/08 04:33:59;;;;;;;135.95;22.45;;;1.30;99.90;;;-0.33;100.00;101253.31;4839446;28;20040;-85
2023/12/08 04:36:28;;;;;;;135.23;20.15;;;;;;;-0.30;100.00;101247.28;4798669;29;20063;-87
2023/12/08 04:38:54;;;;;;;104.68;19.35;;;;;;;-0.30;100.00;101245.59;4855507;28;20149;-87
2023/12/08 04:41:28;;;;;;;95.07;17.85;;;;;;;-0.29;100.00;101251.63;4836508;28;20180;-86
2023/12/08 04:43:57;;;;;;;114.00;19.50;;;1.40;99.90;;;-0.26;100.00;101259.41;4919410;28;20038;-89
2023/12/08 04:46:33;;;;;;;124.25;20.48;;;;;;;-0.24;100.00;101262.88;4871295;28;21770;-86
2023/12/08 04:48:59;;;;;;;75.90;14.90;;;1.40;99.90;;;-0.27;100.00;101268.03;4888771;28;20042;-85
2023/12/08 04:51:27;;;;;;;165.05;22.60;;;1.50;99.90;;;-0.21;100.00;101271.53;4858724;28;20138;-86
2023/12/08 04:54:02;;;;;;;148.23;23.95;;;;;;;-0.17;100.00;101268.94;4831480;28;20401;-88
2023/12/08 04:56:28;;;;;;;139.80;24.33;;;1.50;99.90;;;-0.11;100.00;101266.41;4918467;28;20030;-86
2023/12/08 04:59:10;;;;;;;129.30;22.67;;;1.50;99.90;;;-0.09;100.00;101259.50;4868591;28;20052;-86
2023/12/08 05:01:59;;;;;;;124.88;22.65;;;;;;;-0.03;100.00;101259.56;4901756;28;20048;-87
2023/12/08 05:04:30;;;;;;;124.05;21.98;;;1.60;99.90;;;-0.01;100.00;101263.00;4842107;29;20099;-88
2023/12/08 05:07:08;;;;;;;139.32;24.00;;;;;;;-0.04;100.00;101268.19;4817915;29;20040;-86
2023/12/08 05:10:00;;;;;;;154.90;25.25;;;;;;;-0.03;100.00;101272.50;4818270;29;20570;-87
2023/12/08 05:12:29;;;;;;;145.93;24.85;;;1.60;99.90;;;-0.04;100.00;101263.88;4826178;29;20044;-88
2023/12/08 05:15:10;;;;;;;155.00;26.77;;;;;;;-0.03;100.00;101267.31;4803759;29;20049;-87
2023/12/08 05:17:48;;;;;;;146.82;27.08;;;1.60;99.90;;;-0.01;100.00;101265.59;4770017;29;20042;-86
2023/12/08 05:20:14;;;;;;;141.00;24.83;;;1.60;99.90;;;-0.02;100.00;101266.47;4777227;29;20053;-87
2023/12/08 05:22:49;;;;;;;160.77;28.27;;;;;;;-0.01;100.00;101257.84;4795072;29;20069;-86
2023/12/08 05:25:47;;;;;;;154.00;29.98;;;;;;;-0.03;100.00;101252.63;4822635;29;20073;-86
2023/12/08 05:28:13;;;;;;;167.85;29.67;;;1.70;99.90;;;0.02;100.00;101252.66;4786605;29;20562;-87
2023/12/08 05:30:39;;;;;;;165.10;29.05;;;;;;;0.00;100.00;101244.06;4788259;29;20039;-86
2023/12/08 05:33:34;;;;;;;159.65;28.88;;;;;;;0.00;100.00;101228.50;4790718;29;20069;-85
2023/12/08 05:36:09;;;;;;;144.70;30.67;;;1.60;99.90;;;-0.02;100.00;101233.69;4789335;29;20101;-86
2023/12/08 05:38:48;;;;;;;133.32;28.90;;;1.70;99.90;;;0.02;100.00;101223.31;4785933;29;20045;-87
2023/12/08 05:41:17;;;;;;;136.23;27.40;;;1.60;99.90;;;-0.02;100.00;101220.72;4804294;29;20098;-86
2023/12/08 05:43:50;;;;;;;132.30;26.70;;;1.70;99.90;;;0.00;100.00;101220.75;4819021;29;20059;-87
2023/12/08 05:46:30;;;;;;;100.40;24.45;;;1.60;99.90;;;-0.03;100.00;101215.53;4850698;28;20093;-86
2023/12/08 05:49:30;;;;;;;116.13;25.77;;;1.70;99.90;;;-0.03;100.00;101203.44;4838153;28;20094;-86
2023/12/08 05:52:10;;;;;;;;;;;;;;;;;;;;;
2023/12/08 05:54:39;;;;;;;121.45;30.55;;;;;;;0.11;100.00;101205.22;4870501;28;20665;-86
2023/12/08 05:57:16;;;;;;;148.60;29.52;;;1.80;99.90;;;0.12;100.00;101200.06;4837210;28;20051;-87
2023/12/08 05:59:42;;;;;;;135.63;31.58;;;1.80;99.90;;;0.16;100.00;101199.22;4846223;28;20039;-85
2023/12/08 06:02:08;;;;;;;147.45;31.67;;;;;;;0.20;100.00;101207.88;4819691;28;20048;-86
2023/12/08 06:04:45;;;;;;;165.43;38.17;;;1.80;99.90;;;0.22;100.00;101205.28;4889130;28;20049;-86
2023/12/08 06:07:21;;;;;;;197.15;37.65;;;;;;;0.21;100.00;101194.06;4892555;28;20029;-86
2023/12/08 06:09:49;;;;;;;255.03;40.17;;;;;;;0.21;100.00;101199.22;4923786;28;20030;-87
2023/12/08 06:12:39;;;;;;;282.15;46.40;;;;;;;0.22;100.00;101221.69;4927693;28;20431;-88
2023/12/08 06:15:11;;;;;;;349.98;53.17;;;1.80;99.90;;;0.20;100.00;101226.88;4882503;28;20051;-87
2023/12/08 06:18:00;;;;;;;402.20;57.05;;;1.80;99.90;;;0.19;100.00;101226.84;4923024;28;20133;-87
2023/12/08 06:20:30;;;;;;;413.80;48.67;;;1.80;99.90;;;0.24;100.00;101216.50;4943348;28;20192;-87
2023/12/08 06:23:07;;;;;;;354.35;47.92;;;1.80;99.90;;;0.15;100.00;101222.50;4846123;28;20038;-87
2023/12/08 06:25:33;;;;;;;208.73;31.15;;;;;;;0.10;100.00;101224.22;4869736;28;20041;-86
2023/12/08 06:28:10;;;;;;;289.25;41.45;;;;;;;0.09;100.00;101227.69;4935215;28;20034;-86
2023/12/08 06:30:39;;;;;;;358.48;50.53;;;1.80;99.90;;;0.13;100.00;101221.63;4908255;28;20054;-87
2023/12/08 06:33:13;;;;;;;356.17;47.95;;;1.80;99.90;;;0.15;100.00;101228.59;4876157;28;20045;-87
2023/12/08 06:35:39;;;;;;;287.23;42.22;;;1.80;99.90;;;0.12;100.00;101228.56;4894978;28;20169;-86
2023/12/08 06:42:01;;;;;;;378.58;51.45;;;1.80;99.90;;;0.16;100.00;101221.66;4760015;29;20041;-87
2023/12/08 06:44:30;;;;;;;367.77;50.63;;;;;;;0.12;100.00;101223.38;4741990;29;20042;-85
2023/12/08 06:47:08;;;;;;;415.38;53.47;;;1.80;99.90;;;0.11;100.00;101216.47;4759825;29;20051;-88
2023/12/08 06:49:44;;;;;;;;;;;;;;;;;;;;;
2023/12/08 06:52:10;;;;;;;373.25;50.97;;;;;;;0.05;100.00;101213.84;4858883;28;20047;-87
2023/12/08 06:54:37;;;;;;;412.05;52.45;;;;;;;0.04;100.00;101203.47;4849038;28;20051;-86
2023/12/08 06:57:03;;;;;;;385.80;50.15;;;1.70;99.90;;;0.08;100.00;101210.41;4856167;28;20043;-86
2023/12/08 06:59:53;;;;;;;355.52;50.60;;;1.80;99.90;;;0.09;100.00;101223.38;4827705;28;20430;-87
2023/12/08 07:02:19;;;;;;;390.20;53.55;;;;;;;0.08;100.00;101229.38;4869433;28;20070;-86
2023/12/08 07:04:45;;;;;;;361.70;49.35;;;1.70;99.90;;;0.10;100.00;101227.69;4880678;28;20040;-88
2023/12/08 07:07:11;;;;;;;310.67;45.50;;;;;;;0.09;100.00;101223.38;4827689;28;20380;-86
2023/12/08 07:09:49;;;;;;;352.80;53.53;;;;;;;0.13;100.00;101224.22;4874190;28;20044;-86
2023/12/08 07:12:39;;;;;;;405.92;57.10;;;;;;;0.16;100.00;101206.13;4876986;28;20062;-87
2023/12/08 07:15:08;;;;;;;423.67;56.05;;;1.80;99.90;;;0.16;100.00;101208.72;4874258;28;20221;-87
2023/12/08 07:17:44;;;;;;;;;;;;;;;;;;;;;
2023/12/08 07:20:11;;;;;;;334.85;49.05;;;1.80;99.90;;;0.15;100.00;101210.47;4848854;29;20357;-88
2023/12/08 07:22:38;;;;;;;398.33;55.97;;;;;;;0.14;100.00;101200.94;4845838;28;20039;-86
2023/12/08 07:25:43;;;;;;;383.55;56.53;;;1.80;99.90;;;0.18;100.00;101189.72;4880778;28;20031;-86
2023/12/08 07:28:09;;;;;;;361.52;56.17;;;1.80;99.90;;;0.19;100.00;101186.31;4894264;28;20499;-86
2023/12/08 07:30:48;;;;;;;303.60;48.28;;;1.80;99.90;;;0.15;100.00;101184.56;4914753;28;20023;-88
2023/12/08 07:33:19;;;;;;;282.77;48.63;;;1.80;99.90;;;0.10;100.00;101175.03;4901558;28;20477;-86
2023/12/08 07:35:53;;;;;;;311.92;51.30;;;1.80;99.90;;;0.16;100.00;101188.88;4861392;28;20034;-87
2023/12/08 07:38:20;;;;;;;246.88;45.63;;;1.80;99.90;;;0.13;100.00;101173.31;4953772;28;20107;-86
2023/12/08 07:40:56;;;;;;;;;;;;;;;;;;;;;
2023/12/08 07:43:41;;;;;;;286.10;56.17;;;1.80;99.90;;;0.11;100.00;101180.22;4863654;28;20031;-86
2023/12/08 07:46:53;;;;;;;261.15;50.63;;;;;;;0.16;100.00;101181.09;4873484;28;20050;-87
2023/12/08 07:49:19;;;;;;;290.00;55.38;;;1.80;99.90;;;0.22;100.00;101174.19;4896927;28;20045;-86
2023/12/08 07:51:51;;;;;;;276.15;55.08;;;;;;;0.25;100.00;101167.31;4846192;29;20052;-87
2023/12/08 07:54:20;;;;;;;238.93;49.88;;;;;;;0.25;100.00;101162.13;4846510;29;20118;-89
2023/12/08 07:56:46;;;;;;;269.67;53.63;;;1.90;99.90;;;0.26;100.00;101163.88;4898301;29;20036;-87
2023/12/08 07:59:26;;;;;;;297.00;54.72;;;;;;;0.30;100.00;101175.09;4854148;29;20047;-86
2023/12/08 08:02:01;;;;;;;245.93;51.40;;;1.90;99.90;;;0.28;100.00;101177.69;4869720;28;20119;-87
2023/12/08 08:04:30;;;;;;;274.33;55.47;;;;;;;0.26;100.00;101166.47;4846195;28;20043;-88
2023/12/08 08:07:08;;;;;;;241.07;53.30;;;;;;;0.31;100.00;101153.53;4904174;28;20035;-87
2023/12/08 08:10:21;;;;;;;273.75;57.58;;;;;;;0.34;100.00;101150.91;4935343;23;20054;-87
2023/12/08 08:12:32;;;;;;;142.95;33.53;;;1.90;99.90;;;0.22;100.00;101151.78;4963088;28;20047;-87
2023/12/08 08:15:10;;;;;;;239.75;54.42;;;;;;;0.28;100.00;101156.09;4933047;28;20136;-87
2023/12/08 08:18:39;;;;;;;213.90;50.50;;;1.90;99.90;;;0.24;100.00;101155.22;4946638;28;20121;-87
2023/12/08 08:21:29;;;;;;;191.98;43.17;;;;;;;0.25;100.00;101154.34;4777120;29;20045;-88
2023/12/08 08:24:08;;;;;;;224.52;53.70;;;1.90;99.90;;;0.28;100.00;101163.84;4802801;29;20771;-87
2023/12/08 08:26:44;;;;;;;;;;;;;;;;;;;;;
2023/12/08 08:29:11;;;;;;;231.23;54.63;;;;;;;0.25;100.00;101161.28;4863267;23;20384;-86
2023/12/08 08:31:39;;;;;;;186.20;42.75;;;;;;;0.26;100.00;101163.88;4883298;28;20208;-87
2023/12/08 08:34:06;;;;;;;210.60;52.15;;;;;;;0.26;100.00;101158.69;4948456;28;20045;-88
2023/12/08 08:36:42;;;;;;;179.48;43.90;;;;;;;0.24;100.00;101152.63;4903232;28;20455;-86
2023/12/08 08:39:08;;;;;;;163.45;38.95;;;1.90;99.90;;;0.29;100.00;101144.88;4847604;28;21404;-88
2023/12/08 08:41:41;;;;;;;208.90;53.92;;;1.80;99.90;;;0.20;100.00;101130.19;4835609;28;20111;-87
2023/12/08 08:44:10;;;;;;;212.02;53.45;;;1.90;99.90;;;0.29;100.00;101137.09;4871059;28;20533;-87
2023/12/08 08:46:51;;;;;;;177.18;45.75;;;;;;;0.26;100.00;101131.91;4873677;28;20187;-87
2023/12/08 08:49:29;;;;;;;187.90;48.08;;;;;;;0.30;100.00;101128.47;4931241;23;20017;-87
2023/12/08 08:51:58;;;;;;;185.10;43.70;;;1.90;99.90;;;0.31;100.00;101125.03;4909586;28;20050;-89
2023/12/08 08:54:31;;;;;;;172.30;42.75;;;1.90;99.90;;;0.26;100.00;101117.25;4879043;28;20474;-87
2023/12/08 08:56:59;;;;;;;254.95;60.50;;;1.90;99.90;;;0.26;100.00;101127.63;4858734;28;20089;-88
2023/12/08 08:59:51;;;;;;;246.73;59.80;;;1.90;99.90;;;0.25;100.00;101125.88;4872779;28;20023;-86
2023/12/08 09:02:20;;;;;;;264.80;64.40;;;1.90;99.90;;;0.30;100.00;101136.22;4949132;28;20027;-86
2023/12/08 09:08:11;;;;;;;206.15;51.00;;;;;;;0.27;100.00;101121.56;4873692;28;21141;-89
2023/12/08 09:14:33;;;;;;;145.23;36.75;;;2.00;99.90;;;0.35;100.00;101122.44;4749165;29;20188;-87
2023/12/08 09:17:05;;;;;;;246.82;74.10;;;2.00;99.90;;;0.36;100.00;101129.34;4725929;29;20137;-87
2023/12/08 09:19:40;;;;;;;222.40;58.88;;;;;;;0.38;100.00;101131.94;4727195;29;20103;-88
2023/12/08 09:22:06;;;;;;;163.67;42.33;;;2.00;99.90;;;0.30;100.00;101115.50;4705046;29;20058;-87
2023/12/08 09:24:41;;;;;;;169.02;44.25;;;2.00;99.90;;;0.31;100.00;101112.94;4748012;29;20046;-87
2023/12/08 09:27:10;;;;;;;169.88;45.10;;;1.90;99.90;;;0.30;100.00;101110.31;4728630;29;20124;-88
2023/12/08 09:29:59;;;;;;;163.52;45.55;;;;;;;0.28;100.00;101112.06;4812675;23;20049;-87
2023/12/08 09:32:40;;;;;;;151.63;44.88;;;;;;;0.33;100.00;101118.13;4955220;28;20038;-87
2023/12/08 09:35:10;;;;;;;133.05;38.28;;;;;;;0.29;100.00;101121.56;4971580;28;20037;-88
2023/12/08 09:38:00;;;;;;;122.95;36.65;;;2.00;99.90;;;0.35;100.00;101121.59;4925322;28;20126;-86
2023/12/08 09:44:12;;;;;;;135.93;40.90;;;1.90;99.90;;;0.24;100.00;101097.34;4859505;28;20064;-86
2023/12/08 09:49:49;;;;;;;118.63;38.17;;;1.80;99.90;;;0.08;100.00;101106.84;4874802;23;20099;-87
2023/12/08 09:52:46;;;;;;;55.90;17.80;;;1.70;99.90;;;-0.01;100.00;101118.03;4976966;28;20043;-88
2023/12/08 09:55:39;;;;;;;77.80;21.63;;;;;;;-0.14;100.00;101105.91;4976473;28;20525;-86
2023/12/08 09:59:08;;;;;;;109.60;36.15;;;1.70;99.90;;;-0.13;100.00;101102.44;4869670;29;20048;-87
2023/12/08 10:01:50;;;;;;;117.20;36.10;;;1.50;99.90;;;-0.30;100.00;101098.09;4871036;28;20039;-86
2023/12/08 10:04:39;;;;;;;108.53;35.17;;;1.50;99.90;;;-0.24;100.00;101087.78;4818031;28;20028;-88
2023/12/08 10:07:11;;;;;;;110.28;34.67;;;1.50;99.90;;;-0.26;100.00;101097.25;4781223;29;20052;-87
2023/12/08 10:09:50;;;;;;;90.78;29.98;;;1.50;99.90;;;-0.21;100.00;101095.53;4867031;23;20392;-87
2023/12/08 10:13:01;;;;;;;108.80;34.95;;;;;;;-0.16;100.00;101097.28;4969186;28;20039;-87
2023/12/08 10:16:30;;;;;;;81.35;25.63;;;1.50;99.90;;;-0.23;100.00;101076.53;4884257;28;20061;-87
2023/12/08 10:19:59;;;;;;;127.20;40.75;;;1.50;99.90;;;-0.25;100.00;101069.63;4778498;29;20054;-89
2023/12/08 10:23:05;;;;;;;;;;;;;;;;;;;;;
2023/12/08 10:31:27;;;;;;;100.30;31.60;;;;;;;-0.24;100.00;101058.41;4982054;23;20158;-88
2023/12/08 10:34:41;;;;;;;140.18;44.03;;;1.50;99.90;;;-0.19;100.00;101068.78;4959238;28;20042;-87
2023/12/08 10:37:17;;;;;;;118.68;36.95;;;1.50;99.90;;;-0.21;100.00;101076.56;4847218;28;20043;-86
2023/12/08 10:39:51;;;;;;;82.93;27.90;;;1.50;99.90;;;-0.26;100.00;101073.06;4833869;29;20111;-86
2023/12/08 10:42:20;;;;;;;133.55;41.80;;;;;;;-0.27;100.00;101069.63;4795088;29;20085;-86
2023/12/08 10:44:47;;;;;;;112.13;36.40;;;1.50;99.90;;;-0.21;100.00;101071.38;4874776;29;20095;-82
2023/12/08 10:47:25;;;;;;;100.82;34.10;;;1.50;99.90;;;-0.11;100.00;101067.06;4882702;28;20038;-85
2023/12/08 10:50:05;;;;;;;117.85;38.78;;;1.50;99.90;;;-0.19;100.00;101068.78;4912730;28;20034;-83
2023/12/08 10:52:41;;;;;;;92.22;29.20;;;1.50;99.90;;;-0.30;100.00;101061.88;4921162;28;20042;-83
2023/12/08 10:55:09;;;;;;;61.70;19.88;;;1.40;99.90;;;-0.29;100.00;101053.22;4932837;28;20037;-83
2023/12/08 10:57:46;;;;;;;86.35;25.77;;;1.50;99.90;;;-0.31;100.00;101049.75;4931545;28;20050;-82
2023/12/08 11:00:26;;;;;;;;;;;;;;;;;;;;;
2023/12/08 11:02:53;;;;;;;92.95;27.90;;;1.50;99.90;;;-0.24;100.00;101048.94;4918757;28;20033;-83
2023/12/08 11:05:47;;;;;;;131.48;40.90;;;1.40;99.90;;;-0.21;100.00;101059.28;4907736;28;20034;-83
2023/12/08 11:08:19;;;;;;;118.25;37.40;;;1.40;99.90;;;-0.28;100.00;101049.78;4905736;28;20037;-83
2023/12/08 11:11:01;;;;;;;104.53;32.75;;;1.50;99.90;;;-0.21;100.00;101042.91;4895312;28;20056;-86
2023/12/08 11:13:29;;;;;;;135.50;43.90;;;1.50;99.90;;;-0.19;100.00;101041.19;4900267;28;20049;-83
2023/12/08 11:16:28;;;;;;;174.32;51.90;;;1.50;99.90;;;-0.11;100.00;101026.56;4986119;28;20052;-83
2023/12/08 11:19:07;;;;;;;137.25;39.42;;;;;;;-0.13;100.00;101028.28;5013776;28;20032;-87
2023/12/08 11:21:47;;;;;;;177.52;54.53;;;1.50;99.90;;;-0.12;100.00;101029.13;4987731;28;20045;-84
2023/12/08 11:24:27;;;;;;;178.23;52.88;;;1.60;99.90;;;-0.10;100.00;101020.50;4964769;28;20042;-83
2023/12/08 11:27:17;;;;;;;174.77;53.83;;;1.60;99.90;;;-0.03;100.00;101026.56;4983383;28;20043;-85
2023/12/08 11:30:05;;;;;;;157.15;47.33;;;1.60;99.90;;;-0.10;100.00;101019.66;4969953;28;20073;-84
2023/12/08 11:33:26;;;;;;;108.22;32.10;;;1.50;99.90;;;-0.16;100.00;101020.47;4945118;28;20037;-85
2023/12/08 11:35:52;;;;;;;119.93;38.65;;;1.50;99.90;;;-0.23;100.00;101013.56;4860127;28;20051;-83
2023/12/08 11:38:29;;;;;;;59.75;19.02;;;1.50;99.90;;;-0.28;100.00;101005.81;4877219;28;20042;-84
2023/12/08 11:41:09;;;;;;;135.88;44.45;;;1.50;99.90;;;-0.22;100.00;101023.94;4864139;28;20060;-87
2023/12/08 11:43:38;;;;;;;135.77;44.88;;;;;;;-0.21;100.00;101012.72;4854835;28;20043;-86